sensor_id;sensor_type;location;lat;lon;timestamp;temperature;humidity
24103;DHT22;12278;53.058;9.028;2023-07-20T00:01:01;14.90;99.90
24103;DHT22;12278;53.058;9.028;2023-07-20T00:05:02;14.80;99.90
24103;DHT22;12278;53.058;9.028;2023-07-20T00:09:02;14.70;99.90
24103;DHT22;12278;53.058;9.028;2023-07-20T00:13:03;14.70;99.90
24103;DHT22;12278;53.058;9.028;2023-07-20T00:17:03;14.80;99.90
24103;DHT22;12278;53.058;9.028;2023-07-20T00:21:04;14.80;99.90
24103;DHT22;12278;53.058;9.028;2023-07-20T00:25:04;14.80;99.90
24103;DHT22;12278;53.058;9.028;2023-07-20T00:29:05;14.80;99.90
24103;DHT22;12278;53.058;9.028;2023-07-20T00:33:09;14.90;99.90
24103;DHT22;12278;53.058;9.028;2023-07-20T00:37:10;15.00;99.90
24103;DHT22;12278;53.058;9.028;2023-07-20T00:41:10;14.90;99.90
24103;DHT22;12278;53.058;9.028;2023-07-20T00:45:11;14.90;99.90
24103;DHT22;12278;53.058;9.028;2023-07-20T00:49:11;14.90;99.90
24103;DHT22;12278;53.058;9.028;2023-07-20T00:53:12;14.90;99.90
24103;DHT22;12278;53.058;9.028;2023-07-20T00:57:14;14.80;99.90
24103;DHT22;12278;53.058;9.028;2023-07-20T01:01:14;14.90;99.90
24103;DHT22;12278;53.058;9.028;2023-07-20T01:05:15;14.90;99.90
24103;DHT22;12278;53.058;9.028;2023-07-20T01:09:19;14.90;99.90
24103;DHT22;12278;53.058;9.028;2023-07-20T01:13:20;14.80;99.90
24103;DHT22;12278;53.058;9.028;2023-07-20T01:17:22;14.90;99.90
24103;DHT22;12278;53.058;9.028;2023-07-20T01:21:26;15.00;99.90
24103;DHT22;12278;53.058;9.028;2023-07-20T01:33:47;15.00;99.90
24103;DHT22;12278;53.058;9.028;2023-07-20T01:37:48;15.00;99.90
24103;DHT22;12278;53.058;9.028;2023-07-20T01:41:49;15.00;99.90
24103;DHT22;12278;53.058;9.028;2023-07-20T01:45:50;14.90;99.90
24103;DHT22;12278;53.058;9.028;2023-07-20T01:49:50;14.90;99.90
24103;DHT22;12278;53.058;9.028;2023-07-20T01:53:51;14.80;99.90
24103;DHT22;12278;53.058;9.028;2023-07-20T01:57:52;14.70;99.90
24103;DHT22;12278;53.058;9.028;2023-07-20T02:01:52;14.70;99.90
24103;DHT22;12278;53.058;9.028;2023-07-20T02:05:53;14.70;99.90
24103;DHT22;12278;53.058;9.028;2023-07-20T02:09:53;14.70;99.90
24103;DHT22;12278;53.058;9.028;2023-07-20T02:13:54;14.70;99.90
24103;DHT22;12278;53.058;9.028;2023-07-20T02:17:54;14.70;99.90
24103;DHT22;12278;53.058;9.028;2023-07-20T02:21:55;14.70;99.90
24103;DHT22;12278;53.058;9.028;2023-07-20T02:25:55;14.70;99.90
24103;DHT22;12278;53.058;9.028;2023-07-20T02:29:56;14.70;99.90
24103;DHT22;12278;53.058;9.028;2023-07-20T02:33:56;14.60;99.90
24103;DHT22;12278;53.058;9.028;2023-07-20T02:37:57;14.60;99.90
24103;DHT22;12278;53.058;9.028;2023-07-20T02:41:58;14.70;99.90
24103;DHT22;12278;53.058;9.028;2023-07-20T02:45:58;14.60;99.90
24103;DHT22;12278;53.058;9.028;2023-07-20T02:49:58;14.50;99.90
24103;DHT22;12278;53.058;9.028;2023-07-20T02:53:59;14.30;99.90
24103;DHT22;12278;53.058;9.028;2023-07-20T02:58:00;14.30;99.90
24103;DHT22;12278;53.058;9.028;2023-07-20T03:02:00;14.40;99.90
24103;DHT22;12278;53.058;9.028;2023-07-20T03:06:01;14.40;99.90
24103;DHT22;12278;53.058;9.028;2023-07-20T03:10:02;14.30;99.90
24103;DHT22;12278;53.058;9.028;2023-07-20T03:14:03;14.40;99.90
24103;DHT22;12278;53.058;9.028;2023-07-20T03:18:04;14.50;99.90
24103;DHT22;12278;53.058;9.028;2023-07-20T03:22:04;14.50;99.90
24103;DHT22;12278;53.058;9.028;2023-07-20T03:26:05;14.60;99.90
24103;DHT22;12278;53.058;9.028;2023-07-20T03:30:08;14.60;99.90
24103;DHT22;12278;53.058;9.028;2023-07-20T03:34:09;14.60;99.90
24103;DHT22;12278;53.058;9.028;2023-07-20T03:38:10;14.60;99.90
24103;DHT22;12278;53.058;9.028;2023-07-20T03:42:10;14.70;99.90
24103;DHT22;12278;53.058;9.028;2023-07-20T03:46:11;14.60;99.90
24103;DHT22;12278;53.058;9.028;2023-07-20T03:50:11;14.40;99.90
24103;DHT22;12278;53.058;9.028;2023-07-20T03:54:12;14.40;99.90
24103;DHT22;12278;53.058;9.028;2023-07-20T03:58:13;14.40;99.90
24103;DHT22;12278;53.058;9.028;2023-07-20T04:02:14;14.40;99.90
24103;DHT22;12278;53.058;9.028;2023-07-20T04:06:14;14.40;99.90
24103;DHT22;12278;53.058;9.028;2023-07-20T04:10:17;14.40;99.90
24103;DHT22;12278;53.058;9.028;2023-07-20T04:14:18;14.40;99.90
24103;DHT22;12278;53.058;9.028;2023-07-20T04:18:19;14.40;99.90
24103;DHT22;12278;53.058;9.028;2023-07-20T04:22:19;14.40;99.90
24103;DHT22;12278;53.058;9.028;2023-07-20T04:26:20;14.40;99.90
24103;DHT22;12278;53.058;9.028;2023-07-20T04:30:21;14.30;99.90
24103;DHT22;12278;53.058;9.028;2023-07-20T04:34:22;14.40;99.90
24103;DHT22;12278;53.058;9.028;2023-07-20T04:38:23;14.40;99.90
24103;DHT22;12278;53.058;9.028;2023-07-20T04:42:24;14.60;99.90
24103;DHT22;12278;53.058;9.028;2023-07-20T04:46:25;14.60;99.90
24103;DHT22;12278;53.058;9.028;2023-07-20T04:50:25;14.70;99.90
24103;DHT22;12278;53.058;9.028;2023-07-20T04:54:26;14.60;99.90
24103;DHT22;12278;53.058;9.028;2023-07-20T04:58:27;14.70;99.90
24103;DHT22;12278;53.058;9.028;2023-07-20T05:02:28;14.70;99.90
24103;DHT22;12278;53.058;9.028;2023-07-20T05:06:28;14.90;99.90
24103;DHT22;12278;53.058;9.028;2023-07-20T05:10:29;14.90;99.90
24103;DHT22;12278;53.058;9.028;2023-07-20T05:14:30;14.90;99.90
24103;DHT22;12278;53.058;9.028;2023-07-20T05:18:30;15.00;99.90
24103;DHT22;12278;53.058;9.028;2023-07-20T05:22:31;15.00;99.90
24103;DHT22;12278;53.058;9.028;2023-07-20T05:26:32;15.10;99.90
24103;DHT22;12278;53.058;9.028;2023-07-20T05:30:33;15.10;99.90
24103;DHT22;12278;53.058;9.028;2023-07-20T05:34:34;15.10;99.90
24103;DHT22;12278;53.058;9.028;2023-07-20T05:38:34;15.10;99.90
24103;DHT22;12278;53.058;9.028;2023-07-20T05:42:35;15.10;99.90
24103;DHT22;12278;53.058;9.028;2023-07-20T05:46:36;15.20;99.90
24103;DHT22;12278;53.058;9.028;2023-07-20T05:50:37;15.20;99.90
24103;DHT22;12278;53.058;9.028;2023-07-20T05:54:38;15.40;99.90
24103;DHT22;12278;53.058;9.028;2023-07-20T05:58:38;15.50;99.90
24103;DHT22;12278;53.058;9.028;2023-07-20T06:02:39;15.50;99.90
24103;DHT22;12278;53.058;9.028;2023-07-20T06:06:40;15.60;99.90
24103;DHT22;12278;53.058;9.028;2023-07-20T06:10:41;15.70;99.90
24103;DHT22;12278;53.058;9.028;2023-07-20T06:14:42;15.70;99.90
24103;DHT22;12278;53.058;9.028;2023-07-20T06:18:42;15.80;99.90
24103;DHT22;12278;53.058;9.028;2023-07-20T06:22:44;15.90;99.90
24103;DHT22;12278;53.058;9.028;2023-07-20T06:26:45;16.10;99.90
24103;DHT22;12278;53.058;9.028;2023-07-20T06:30:45;16.10;99.90
24103;DHT22;12278;53.058;9.028;2023-07-20T06:34:46;16.30;99.90
24103;DHT22;12278;53.058;9.028;2023-07-20T06:38:47;16.30;99.90
24103;DHT22;12278;53.058;9.028;2023-07-20T06:42:48;16.40;99.90
24103;DHT22;12278;53.058;9.028;2023-07-20T06:46:48;16.60;99.90
24103;DHT22;12278;53.058;9.028;2023-07-20T06:50:49;17.00;99.90
24103;DHT22;12278;53.058;9.028;2023-07-20T06:54:50;17.10;99.90
24103;DHT22;12278;53.058;9.028;2023-07-20T06:58:50;17.30;99.90
24103;DHT22;12278;53.058;9.028;2023-07-20T07:02:51;17.30;99.90
24103;DHT22;12278;53.058;9.028;2023-07-20T07:06:51;17.50;99.90
24103;DHT22;12278;53.058;9.028;2023-07-20T07:10:52;17.70;99.90
24103;DHT22;12278;53.058;9.028;2023-07-20T07:14:53;17.60;99.90
24103;DHT22;12278;53.058;9.028;2023-07-20T07:18:54;17.70;99.90
24103;DHT22;12278;53.058;9.028;2023-07-20T07:22:55;17.90;99.90
24103;DHT22;12278;53.058;9.028;2023-07-20T07:26:57;18.20;99.90
24103;DHT22;12278;53.058;9.028;2023-07-20T07:30:58;18.70;99.90
24103;DHT22;12278;53.058;9.028;2023-07-20T07:34:59;19.30;99.90
24103;DHT22;12278;53.058;9.028;2023-07-20T07:39:00;19.30;99.90
24103;DHT22;12278;53.058;9.028;2023-07-20T07:43:01;19.10;99.90
24103;DHT22;12278;53.058;9.028;2023-07-20T07:47:02;19.70;99.90
24103;DHT22;12278;53.058;9.028;2023-07-20T07:51:02;20.10;99.90
24103;DHT22;12278;53.058;9.028;2023-07-20T07:55:04;19.70;99.90
24103;DHT22;12278;53.058;9.028;2023-07-20T07:59:04;19.60;99.90
24103;DHT22;12278;53.058;9.028;2023-07-20T08:03:08;20.20;99.90
24103;DHT22;12278;53.058;9.028;2023-07-20T08:07:09;19.90;99.90
24103;DHT22;12278;53.058;9.028;2023-07-20T08:11:09;20.30;99.90
24103;DHT22;12278;53.058;9.028;2023-07-20T08:15:11;20.20;99.90
24103;DHT22;12278;53.058;9.028;2023-07-20T08:19:13;20.40;99.90
24103;DHT22;12278;53.058;9.028;2023-07-20T08:23:14;21.00;99.90
24103;DHT22;12278;53.058;9.028;2023-07-20T08:27:15;21.40;99.90
24103;DHT22;12278;53.058;9.028;2023-07-20T08:31:16;20.70;99.90
24103;DHT22;12278;53.058;9.028;2023-07-20T08:35:16;20.70;99.90
24103;DHT22;12278;53.058;9.028;2023-07-20T08:39:18;20.40;99.90
24103;DHT22;12278;53.058;9.028;2023-07-20T08:43:19;19.70;99.90
24103;DHT22;12278;53.058;9.028;2023-07-20T08:47:20;19.00;99.90
24103;DHT22;12278;53.058;9.028;2023-07-20T08:51:21;19.70;99.90
24103;DHT22;12278;53.058;9.028;2023-07-20T08:55:21;20.40;99.90
24103;DHT22;12278;53.058;9.028;2023-07-20T08:59:23;20.60;99.90
24103;DHT22;12278;53.058;9.028;2023-07-20T09:03:24;21.30;99.90
24103;DHT22;12278;53.058;9.028;2023-07-20T09:07:25;21.20;99.90
24103;DHT22;12278;53.058;9.028;2023-07-20T09:11:26;20.70;99.90
24103;DHT22;12278;53.058;9.028;2023-07-20T09:15:28;20.60;99.90
24103;DHT22;12278;53.058;9.028;2023-07-20T09:19:29;21.00;99.90
24103;DHT22;12278;53.058;9.028;2023-07-20T09:23:38;21.60;99.90
24103;DHT22;12278;53.058;9.028;2023-07-20T09:27:42;20.70;99.90
24103;DHT22;12278;53.058;9.028;2023-07-20T09:31:43;21.00;99.90
24103;DHT22;12278;53.058;9.028;2023-07-20T09:36:02;21.00;99.90
24103;DHT22;12278;53.058;9.028;2023-07-20T09:40:02;20.90;99.90
24103;DHT22;12278;53.058;9.028;2023-07-20T09:44:06;21.80;99.90
24103;DHT22;12278;53.058;9.028;2023-07-20T09:48:09;21.90;99.90
24103;DHT22;12278;53.058;9.028;2023-07-20T09:52:09;21.30;99.40
24103;DHT22;12278;53.058;9.028;2023-07-20T09:56:10;21.50;99.90
24103;DHT22;12278;53.058;9.028;2023-07-20T10:00:12;21.50;99.90
24103;DHT22;12278;53.058;9.028;2023-07-20T10:04:14;22.10;99.90
24103;DHT22;12278;53.058;9.028;2023-07-20T10:08:15;22.50;99.90
24103;DHT22;12278;53.058;9.028;2023-07-20T10:12:17;21.90;99.90
24103;DHT22;12278;53.058;9.028;2023-07-20T10:16:51;21.90;99.90
24103;DHT22;12278;53.058;9.028;2023-07-20T10:20:48;22.20;99.90
24103;DHT22;12278;53.058;9.028;2023-07-20T10:24:51;22.00;99.90
24103;DHT22;12278;53.058;9.028;2023-07-20T10:28:58;22.20;99.90
24103;DHT22;12278;53.058;9.028;2023-07-20T10:33:00;21.10;99.90
24103;DHT22;12278;53.058;9.028;2023-07-20T10:37:03;20.10;99.90
24103;DHT22;12278;53.058;9.028;2023-07-20T10:41:03;19.90;99.90
24103;DHT22;12278;53.058;9.028;2023-07-20T10:45:04;19.40;99.90
24103;DHT22;12278;53.058;9.028;2023-07-20T10:49:06;19.30;99.90
24103;DHT22;12278;53.058;9.028;2023-07-20T10:53:11;19.10;99.90
24103;DHT22;12278;53.058;9.028;2023-07-20T10:57:28;19.00;99.90
24103;DHT22;12278;53.058;9.028;2023-07-20T11:01:30;19.10;99.90
24103;DHT22;12278;53.058;9.028;2023-07-20T11:05:34;19.40;99.90
24103;DHT22;12278;53.058;9.028;2023-07-20T11:09:36;20.00;99.90
24103;DHT22;12278;53.058;9.028;2023-07-20T11:13:37;20.50;99.90
24103;DHT22;12278;53.058;9.028;2023-07-20T11:17:53;21.20;99.90
24103;DHT22;12278;53.058;9.028;2023-07-20T11:22:10;22.00;99.90
24103;DHT22;12278;53.058;9.028;2023-07-20T11:26:11;21.70;99.90
24103;DHT22;12278;53.058;9.028;2023-07-20T11:30:16;21.30;99.90
24103;DHT22;12278;53.058;9.028;2023-07-20T11:34:17;22.00;99.90
24103;DHT22;12278;53.058;9.028;2023-07-20T11:38:18;22.60;99.90
24103;DHT22;12278;53.058;9.028;2023-07-20T11:42:19;23.60;99.90
24103;DHT22;12278;53.058;9.028;2023-07-20T11:46:20;22.90;99.90
24103;DHT22;12278;53.058;9.028;2023-07-20T11:50:20;22.70;99.90
24103;DHT22;12278;53.058;9.028;2023-07-20T11:54:21;22.60;99.90
24103;DHT22;12278;53.058;9.028;2023-07-20T11:58:22;22.50;99.90
24103;DHT22;12278;53.058;9.028;2023-07-20T12:02:22;22.70;99.90
24103;DHT22;12278;53.058;9.028;2023-07-20T12:06:25;23.40;99.90
24103;DHT22;12278;53.058;9.028;2023-07-20T12:10:26;22.90;99.90
24103;DHT22;12278;53.058;9.028;2023-07-20T12:14:27;22.60;99.90
24103;DHT22;12278;53.058;9.028;2023-07-20T12:18:34;22.00;99.90
24103;DHT22;12278;53.058;9.028;2023-07-20T12:22:41;20.90;99.90
24103;DHT22;12278;53.058;9.028;2023-07-20T12:26:44;19.80;99.90
24103;DHT22;12278;53.058;9.028;2023-07-20T12:30:45;18.80;99.90
24103;DHT22;12278;53.058;9.028;2023-07-20T12:34:46;18.30;99.90
24103;DHT22;12278;53.058;9.028;2023-07-20T12:38:47;18.30;99.90
24103;DHT22;12278;53.058;9.028;2023-07-20T12:42:47;18.40;99.90
24103;DHT22;12278;53.058;9.028;2023-07-20T12:46:48;18.00;99.90
24103;DHT22;12278;53.058;9.028;2023-07-20T12:50:49;18.20;99.90
24103;DHT22;12278;53.058;9.028;2023-07-20T12:54:49;18.70;99.90
24103;DHT22;12278;53.058;9.028;2023-07-20T12:58:50;19.90;99.90
24103;DHT22;12278;53.058;9.028;2023-07-20T13:02:51;20.80;99.90
24103;DHT22;12278;53.058;9.028;2023-07-20T13:06:51;21.30;99.90
24103;DHT22;12278;53.058;9.028;2023-07-20T13:10:52;21.00;99.90
24103;DHT22;12278;53.058;9.028;2023-07-20T13:14:52;20.90;99.90
24103;DHT22;12278;53.058;9.028;2023-07-20T13:18:53;20.60;99.90
24103;DHT22;12278;53.058;9.028;2023-07-20T13:22:53;20.60;99.90
24103;DHT22;12278;53.058;9.028;2023-07-20T13:26:54;20.20;99.90
24103;DHT22;12278;53.058;9.028;2023-07-20T13:30:55;20.00;99.90
24103;DHT22;12278;53.058;9.028;2023-07-20T13:34:55;21.10;99.90
24103;DHT22;12278;53.058;9.028;2023-07-20T13:38:56;22.60;99.90
24103;DHT22;12278;53.058;9.028;2023-07-20T13:42:56;22.40;99.90
24103;DHT22;12278;53.058;9.028;2023-07-20T13:46:57;21.60;99.90
24103;DHT22;12278;53.058;9.028;2023-07-20T13:50:57;20.30;99.90
24103;DHT22;12278;53.058;9.028;2023-07-20T13:54:58;20.10;99.90
24103;DHT22;12278;53.058;9.028;2023-07-20T13:58:58;22.00;99.90
24103;DHT22;12278;53.058;9.028;2023-07-20T14:02:59;23.30;99.90
24103;DHT22;12278;53.058;9.028;2023-07-20T14:06:59;23.80;99.90
24103;DHT22;12278;53.058;9.028;2023-07-20T14:11:00;24.00;99.80
24103;DHT22;12278;53.058;9.028;2023-07-20T14:15:00;22.30;99.90
24103;DHT22;12278;53.058;9.028;2023-07-20T14:19:01;21.40;99.90
24103;DHT22;12278;53.058;9.028;2023-07-20T14:23:01;21.40;99.90
24103;DHT22;12278;53.058;9.028;2023-07-20T14:27:02;22.00;99.90
24103;DHT22;12278;53.058;9.028;2023-07-20T14:31:03;20.40;99.90
24103;DHT22;12278;53.058;9.028;2023-07-20T14:35:03;19.90;99.90
24103;DHT22;12278;53.058;9.028;2023-07-20T14:39:04;19.70;99.90
24103;DHT22;12278;53.058;9.028;2023-07-20T14:43:05;19.70;99.90
24103;DHT22;12278;53.058;9.028;2023-07-20T14:47:06;20.00;99.90
24103;DHT22;12278;53.058;9.028;2023-07-20T14:51:06;20.40;99.90
24103;DHT22;12278;53.058;9.028;2023-07-20T14:55:07;20.50;99.90
24103;DHT22;12278;53.058;9.028;2023-07-20T14:59:07;20.80;99.90
24103;DHT22;12278;53.058;9.028;2023-07-20T15:03:08;20.70;99.90
24103;DHT22;12278;53.058;9.028;2023-07-20T15:07:09;20.60;99.90
24103;DHT22;12278;53.058;9.028;2023-07-20T15:11:10;20.20;99.90
24103;DHT22;12278;53.058;9.028;2023-07-20T15:15:13;20.30;99.90
24103;DHT22;12278;53.058;9.028;2023-07-20T15:19:14;20.90;99.90
24103;DHT22;12278;53.058;9.028;2023-07-20T15:23:16;24.80;99.90
24103;DHT22;12278;53.058;9.028;2023-07-20T15:27:16;25.90;95.70
24103;DHT22;12278;53.058;9.028;2023-07-20T15:31:17;24.30;97.80
24103;DHT22;12278;53.058;9.028;2023-07-20T15:35:18;24.40;98.40
24103;DHT22;12278;53.058;9.028;2023-07-20T15:39:19;24.50;99.80
24103;DHT22;12278;53.058;9.028;2023-07-20T15:43:20;22.90;99.90
24103;DHT22;12278;53.058;9.028;2023-07-20T15:47:20;22.50;99.90
24103;DHT22;12278;53.058;9.028;2023-07-20T15:51:21;22.90;99.90
24103;DHT22;12278;53.058;9.028;2023-07-20T15:55:22;22.30;99.90
24103;DHT22;12278;53.058;9.028;2023-07-20T15:59:22;21.50;99.90
24103;DHT22;12278;53.058;9.028;2023-07-20T16:03:23;21.10;99.90
24103;DHT22;12278;53.058;9.028;2023-07-20T16:07:26;20.70;99.90
24103;DHT22;12278;53.058;9.028;2023-07-20T16:11:27;20.50;99.90
24103;DHT22;12278;53.058;9.028;2023-07-20T16:15:27;20.00;99.90
24103;DHT22;12278;53.058;9.028;2023-07-20T16:19:28;19.90;99.90
24103;DHT22;12278;53.058;9.028;2023-07-20T16:23:29;19.90;99.90
24103;DHT22;12278;53.058;9.028;2023-07-20T16:27:30;20.10;99.90
24103;DHT22;12278;53.058;9.028;2023-07-20T16:31:30;20.40;99.90
24103;DHT22;12278;53.058;9.028;2023-07-20T16:35:31;20.10;99.90
24103;DHT22;12278;53.058;9.028;2023-07-20T16:39:36;19.90;99.90
24103;DHT22;12278;53.058;9.028;2023-07-20T16:43:40;19.80;99.90
24103;DHT22;12278;53.058;9.028;2023-07-20T16:47:41;19.60;99.90
24103;DHT22;12278;53.058;9.028;2023-07-20T16:51:41;19.40;99.90
24103;DHT22;12278;53.058;9.028;2023-07-20T16:55:42;19.20;99.90
24103;DHT22;12278;53.058;9.028;2023-07-20T16:59:42;19.10;99.90
24103;DHT22;12278;53.058;9.028;2023-07-20T17:03:44;19.00;99.90
24103;DHT22;12278;53.058;9.028;2023-07-20T17:07:44;18.80;99.90
24103;DHT22;12278;53.058;9.028;2023-07-20T17:11:45;18.70;99.90
24103;DHT22;12278;53.058;9.028;2023-07-20T17:15:48;18.30;99.90
24103;DHT22;12278;53.058;9.028;2023-07-20T17:19:49;17.70;99.90
24103;DHT22;12278;53.058;9.028;2023-07-20T17:23:49;17.20;99.90
24103;DHT22;12278;53.058;9.028;2023-07-20T17:27:50;17.00;99.90
24103;DHT22;12278;53.058;9.028;2023-07-20T17:31:51;17.00;99.90
24103;DHT22;12278;53.058;9.028;2023-07-20T17:35:51;17.00;99.90
24103;DHT22;12278;53.058;9.028;2023-07-20T17:39:52;16.50;99.90
24103;DHT22;12278;53.058;9.028;2023-07-20T17:43:53;16.40;99.90
24103;DHT22;12278;53.058;9.028;2023-07-20T17:47:53;16.20;99.90
24103;DHT22;12278;53.058;9.028;2023-07-20T17:51:54;16.50;99.90
24103;DHT22;12278;53.058;9.028;2023-07-20T17:55:56;16.40;99.90
24103;DHT22;12278;53.058;9.028;2023-07-20T17:59:56;16.70;99.90
24103;DHT22;12278;53.058;9.028;2023-07-20T18:03:57;16.90;99.90
24103;DHT22;12278;53.058;9.028;2023-07-20T18:07:58;17.10;99.90
24103;DHT22;12278;53.058;9.028;2023-07-20T18:11:59;17.20;99.90
24103;DHT22;12278;53.058;9.028;2023-07-20T18:15:59;17.20;99.90
24103;DHT22;12278;53.058;9.028;2023-07-20T18:20:00;17.20;99.90
24103;DHT22;12278;53.058;9.028;2023-07-20T18:24:01;17.10;99.90
24103;DHT22;12278;53.058;9.028;2023-07-20T18:28:01;17.20;99.90
24103;DHT22;12278;53.058;9.028;2023-07-20T18:32:02;17.20;99.90
24103;DHT22;12278;53.058;9.028;2023-07-20T18:36:03;16.80;99.90
24103;DHT22;12278;53.058;9.028;2023-07-20T18:40:04;16.80;99.90
24103;DHT22;12278;53.058;9.028;2023-07-20T18:44:05;16.80;99.90
24103;DHT22;12278;53.058;9.028;2023-07-20T18:48:05;16.80;99.90
24103;DHT22;12278;53.058;9.028;2023-07-20T18:52:06;16.50;99.90
24103;DHT22;12278;53.058;9.028;2023-07-20T18:56:07;16.40;99.90
24103;DHT22;12278;53.058;9.028;2023-07-20T19:00:07;16.30;99.90
24103;DHT22;12278;53.058;9.028;2023-07-20T19:04:10;16.20;99.90
24103;DHT22;12278;53.058;9.028;2023-07-20T19:08:10;16.30;99.90
24103;DHT22;12278;53.058;9.028;2023-07-20T19:12:11;16.20;99.90
24103;DHT22;12278;53.058;9.028;2023-07-20T19:16:13;16.10;99.90
24103;DHT22;12278;53.058;9.028;2023-07-20T19:20:14;16.00;99.90
24103;DHT22;12278;53.058;9.028;2023-07-20T19:24:15;16.00;99.90
24103;DHT22;12278;53.058;9.028;2023-07-20T19:28:15;15.90;99.90
24103;DHT22;12278;53.058;9.028;2023-07-20T19:32:16;15.80;99.90
24103;DHT22;12278;53.058;9.028;2023-07-20T19:36:17;15.70;99.90
24103;DHT22;12278;53.058;9.028;2023-07-20T19:40:20;15.70;99.90
24103;DHT22;12278;53.058;9.028;2023-07-20T19:44:20;15.70;99.90
24103;DHT22;12278;53.058;9.028;2023-07-20T19:48:22;15.70;99.90
24103;DHT22;12278;53.058;9.028;2023-07-20T19:52:23;15.60;99.90
24103;DHT22;12278;53.058;9.028;2023-07-20T19:56:24;15.60;99.90
24103;DHT22;12278;53.058;9.028;2023-07-20T20:00:24;15.50;99.90
24103;DHT22;12278;53.058;9.028;2023-07-20T20:04:25;15.40;99.90
24103;DHT22;12278;53.058;9.028;2023-07-20T20:08:26;15.40;99.90
24103;DHT22;12278;53.058;9.028;2023-07-20T20:12:26;15.30;99.90
24103;DHT22;12278;53.058;9.028;2023-07-20T20:16:27;15.20;99.90
24103;DHT22;12278;53.058;9.028;2023-07-20T20:20:30;15.10;99.90
24103;DHT22;12278;53.058;9.028;2023-07-20T20:24:31;14.90;99.90
24103;DHT22;12278;53.058;9.028;2023-07-20T20:28:34;14.90;99.90
24103;DHT22;12278;53.058;9.028;2023-07-20T20:32:34;15.00;99.90
24103;DHT22;12278;53.058;9.028;2023-07-20T20:36:40;14.90;99.90
24103;DHT22;12278;53.058;9.028;2023-07-20T20:40:44;14.70;99.90
24103;DHT22;12278;53.058;9.028;2023-07-20T20:44:46;14.80;99.90
24103;DHT22;12278;53.058;9.028;2023-07-20T20:48:46;14.60;99.90
24103;DHT22;12278;53.058;9.028;2023-07-20T20:52:47;14.60;99.90
24103;DHT22;12278;53.058;9.028;2023-07-20T20:56:48;14.60;99.90
24103;DHT22;12278;53.058;9.028;2023-07-20T21:00:49;14.60;99.90
24103;DHT22;12278;53.058;9.028;2023-07-20T21:04:49;14.60;99.90
24103;DHT22;12278;53.058;9.028;2023-07-20T21:08:51;14.50;99.90
24103;DHT22;12278;53.058;9.028;2023-07-20T21:12:52;14.40;99.90
24103;DHT22;12278;53.058;9.028;2023-07-20T21:16:52;14.40;99.90
24103;DHT22;12278;53.058;9.028;2023-07-20T21:20:53;14.40;99.90
24103;DHT22;12278;53.058;9.028;2023-07-20T21:24:53;14.30;99.90
24103;DHT22;12278;53.058;9.028;2023-07-20T21:28:54;14.20;99.90
24103;DHT22;12278;53.058;9.028;2023-07-20T21:32:55;14.20;99.90
24103;DHT22;12278;53.058;9.028;2023-07-20T21:36:56;14.30;99.90
24103;DHT22;12278;53.058;9.028;2023-07-20T21:40:56;14.20;99.90
24103;DHT22;12278;53.058;9.028;2023-07-20T21:44:57;14.20;99.90
24103;DHT22;12278;53.058;9.028;2023-07-20T21:48:57;14.10;99.90
24103;DHT22;12278;53.058;9.028;2023-07-20T21:52:58;14.10;99.90
24103;DHT22;12278;53.058;9.028;2023-07-20T21:56:59;14.10;99.90
24103;DHT22;12278;53.058;9.028;2023-07-20T22:01:00;14.10;99.90
24103;DHT22;12278;53.058;9.028;2023-07-20T22:05:03;14.10;99.90
24103;DHT22;12278;53.058;9.028;2023-07-20T22:09:04;14.00;99.90
24103;DHT22;12278;53.058;9.028;2023-07-20T22:13:05;14.00;99.90
24103;DHT22;12278;53.058;9.028;2023-07-20T22:17:06;14.00;99.90
24103;DHT22;12278;53.058;9.028;2023-07-20T22:21:07;13.90;99.90
24103;DHT22;12278;53.058;9.028;2023-07-20T22:25:11;13.90;99.90
24103;DHT22;12278;53.058;9.028;2023-07-20T22:29:12;14.00;99.90
24103;DHT22;12278;53.058;9.028;2023-07-20T22:33:12;14.00;99.90
24103;DHT22;12278;53.058;9.028;2023-07-20T22:37:13;14.00;99.90
24103;DHT22;12278;53.058;9.028;2023-07-20T22:41:13;14.00;99.90
24103;DHT22;12278;53.058;9.028;2023-07-20T22:45:14;14.10;99.90
24103;DHT22;12278;53.058;9.028;2023-07-20T22:49:15;14.10;99.90
24103;DHT22;12278;53.058;9.028;2023-07-20T22:53:15;14.00;99.90
24103;DHT22;12278;53.058;9.028;2023-07-20T22:57:16;14.00;99.90
24103;DHT22;12278;53.058;9.028;2023-07-20T23:01:17;14.00;99.90
24103;DHT22;12278;53.058;9.028;2023-07-20T23:05:17;14.10;99.90
24103;DHT22;12278;53.058;9.028;2023-07-20T23:09:18;14.00;99.90
24103;DHT22;12278;53.058;9.028;2023-07-20T23:13:18;14.00;99.90
24103;DHT22;12278;53.058;9.028;2023-07-20T23:17:19;14.10;99.90
24103;DHT22;12278;53.058;9.028;2023-07-20T23:21:20;14.10;99.90
24103;DHT22;12278;53.058;9.028;2023-07-20T23:25:21;14.00;99.90
24103;DHT22;12278;53.058;9.028;2023-07-20T23:29:21;14.00;99.90
24103;DHT22;12278;53.058;9.028;2023-07-20T23:33:23;14.00;99.90
24103;DHT22;12278;53.058;9.028;2023-07-20T23:37:24;14.10;99.90
24103;DHT22;12278;53.058;9.028;2023-07-20T23:41:24;14.10;99.90
24103;DHT22;12278;53.058;9.028;2023-07-20T23:45:26;14.00;99.90
24103;DHT22;12278;53.058;9.028;2023-07-20T23:49:26;13.80;99.90
24103;DHT22;12278;53.058;9.028;2023-07-20T23:53:27;13.70;99.90
24103;DHT22;12278;53.058;9.028;2023-07-20T23:57:28;13.70;99.90
